Time;durP1;ratioP1;P1;durP2;ratioP2;P2;SDS_P1;SDS_P2;PMS_P1;PMS_P2;Temp;Humidity;BMP_temperature;BMP_pressure;BME280_temperature;BME280_humidity;BME280_pressure;Samples;Min_cycle;Max_cycle;Signal;HPM_P1;HPM_P2
2023/08/05 00:01:33;;;;;;;5.68;2.53;;;;;;;16.25;100.00;101330.34;6279407;28;20049;-74
2023/08/05 00:04:34;;;;;;;6.95;3.05;;;;;;;16.29;100.00;101325.69;6279161;28;20057;-75
2023/08/05 00:07:37;;;;;;;4.18;2.38;;;;;;;16.30;100.00;101320.25;6279279;28;20433;-74
2023/08/05 00:10:42;;;;;;;6.90;2.83;;;;;;;16.34;100.00;101315.59;6279102;28;20538;-75
2023/08/05 00:13:44;;;;;;;6.45;2.40;;;;;;;16.27;100.00;101317.00;6265675;28;20342;-74
2023/08/05 00:16:45;;;;;;;3.45;2.15;;;;;;;16.24;100.00;101320.69;6269390;22;20326;-75
2023/08/05 00:19:46;;;;;;;4.20;2.38;;;;;;;16.28;100.00;101311.56;6274094;28;20479;-75
2023/08/05 00:22:49;;;;;;;3.42;1.90;;;;;;;16.28;100.00;101308.94;6278896;28;20052;-75
2023/08/05 00:25:50;;;;;;;2.88;1.77;;;;;;;16.25;100.00;101295.88;6255750;28;20048;-75
2023/08/05 00:28:52;;;;;;;3.25;2.00;;;;;;;16.14;100.00;101299.25;6254221;28;20446;-75
2023/08/05 00:31:53;;;;;;;6.63;2.13;;;;;;;16.20;100.00;101297.97;6249936;28;20049;-75
2023/08/05 00:34:54;;;;;;;3.22;2.08;;;;;;;16.15;100.00;101293.00;6253879;28;20052;-75
2023/08/05 00:37:57;;;;;;;2.50;2.00;;;;;;;16.15;100.00;101290.34;6253863;28;20053;-75
2023/08/05 00:40:59;;;;;;;5.85;2.25;;;;;;;16.22;100.00;101282.84;6253996;28;20061;-75
2023/08/05 00:44:00;;;;;;;4.45;2.30;;;;;;;16.17;100.00;101290.25;6253399;28;20041;-75
2023/08/05 00:47:01;;;;;;;7.32;2.63;;;;;;;16.18;100.00;101299.91;6253910;28;20052;-75
2023/08/05 00:50:05;;;;;;;4.18;2.40;;;;;;;16.11;100.00;101299.47;6253654;28;20635;-75
2023/08/05 00:53:08;;;;;;;6.03;2.20;;;;;;;16.00;100.00;101309.94;6250971;28;20060;-75
2023/08/05 00:56:10;;;;;;;6.28;2.15;;;;;;;16.01;100.00;101298.38;6253281;28;20052;-75
2023/08/05 00:59:11;;;;;;;4.65;2.20;;;;;;;15.97;100.00;101295.09;6253567;28;20076;-75
2023/08/05 01:02:13;;;;;;;6.22;2.28;;;;;;;15.88;100.00;101298.34;6249674;28;20046;-75
2023/08/05 01:05:14;;;;;;;4.13;1.75;;;;;;;15.88;100.00;101303.66;6252641;28;20049;-75
2023/08/05 01:08:20;;;;;;;4.82;2.03;;;;;;;15.91;100.00;101303.47;6253354;28;20049;-75
2023/08/05 01:11:23;;;;;;;3.70;2.13;;;;;;;15.92;100.00;101306.97;6253053;28;20072;-75
2023/08/05 01:14:24;;;;;;;6.25;2.80;;;;;;;15.87;100.00;101317.03;6253030;28;20050;-75
2023/08/05 01:17:26;;;;;;;5.93;2.67;;;;;;;15.84;100.00;101312.75;6252828;28;20053;-75
2023/08/05 01:20:33;;;;;;;3.75;2.10;;;;;;;15.77;100.00;101310.63;6253075;28;20446;-75
2023/08/05 01:23:51;;;;;;;4.40;2.30;;;;;;;15.73;100.00;101312.63;6252741;28;20057;-75
2023/08/05 01:26:56;;;;;;;3.80;2.22;;;;;;;15.73;100.00;101296.72;6252748;28;20049;-75
2023/08/05 01:29:57;;;;;;;4.88;2.35;;;;;;;15.76;100.00;101295.66;6252810;28;20052;-75
2023/08/05 01:33:01;;;;;;;4.43;2.38;;;;;;;15.71;100.00;101298.63;6252727;28;20064;-75
2023/08/05 01:36:03;;;;;;;3.17;2.03;;;;;;;15.76;100.00;101309.78;6252396;28;20453;-73
2023/08/05 01:39:04;;;;;;;5.32;2.50;;;;;;;15.79;100.00;101308.72;6234045;28;20061;-73
2023/08/05 01:42:08;;;;;;;2.22;1.95;;;;;;;15.79;100.00;101309.56;6239318;28;20049;-73
2023/08/05 01:45:10;;;;;;;4.57;2.50;;;;;;;15.78;100.00;101294.63;6243538;28;20073;-75
2023/08/05 01:48:11;;;;;;;7.05;2.40;;;;;;;15.74;100.00;101295.78;6250047;28;20061;-75
2023/08/05 01:51:12;;;;;;;3.35;1.98;;;;;;;15.79;100.00;101295.47;6246302;28;20051;-75
2023/08/05 01:54:15;;;;;;;2.85;2.30;;;;;;;15.78;100.00;101296.44;6247827;28;20437;-75
2023/08/05 01:57:17;;;;;;;6.38;2.50;;;;;;;15.70;100.00;101291.63;6251917;28;20053;-74
2023/08/05 02:00:20;;;;;;;6.13;2.60;;;;;;;15.70;100.00;101292.47;6252080;28;20060;-74
2023/08/05 02:03:22;;;;;;;7.00;3.13;;;;;;;15.65;100.00;101291.09;6251542;28;20522;-74
2023/08/05 02:06:23;;;;;;;5.50;2.65;;;;;;;15.61;100.00;101297.50;6251892;28;20060;-74
2023/08/05 02:09:24;;;;;;;4.25;2.97;;;;;;;15.59;100.00;101299.41;6251812;28;20060;-74
2023/08/05 02:12:27;;;;;;;8.75;3.47;;;;;;;15.63;100.00;101296.47;6251756;28;20465;-74
2023/08/05 02:15:28;;;;;;;4.07;2.65;;;;;;;15.61;100.00;101308.09;6239407;28;20457;-74
2023/08/05 02:18:30;;;;;;;5.63;2.80;;;;;;;15.54;100.00;101305.00;6246431;28;20068;-74
2023/08/05 02:21:31;;;;;;;4.47;2.45;;;;;;;15.51;100.00;101305.19;6251523;28;20050;-74
2023/08/05 02:24:33;;;;;;;3.58;2.50;;;;;;;15.44;100.00;101312.72;6251289;28;20056;-74
2023/08/05 02:27:35;;;;;;;4.15;2.78;;;;;;;15.45;100.00;101306.47;6244777;28;20048;-74
2023/08/05 02:30:37;;;;;;;5.28;3.05;;;;;;;15.39;100.00;101311.28;6251198;28;20058;-74
2023/08/05 02:33:38;;;;;;;3.70;2.17;;;;;;;15.30;100.00;101303.94;6250400;28;20064;-74
2023/08/05 02:36:40;;;;;;;6.40;2.67;;;;;;;15.27;100.00;101305.00;6251034;28;20465;-74
2023/08/05 02:39:41;;;;;;;6.43;3.08;;;;;;;15.27;100.00;101310.28;6251363;28;20059;-74
2023/08/05 02:42:45;;;;;;;4.45;2.53;;;;;;;15.23;100.00;101304.34;6250866;28;20327;-74
2023/08/05 02:45:52;;;;;;;2.88;2.17;;;;;;;15.18;100.00;101311.72;6242958;28;20049;-74
2023/08/05 02:48:54;;;;;;;5.93;2.67;;;;;;;15.17;100.00;101309.16;6226408;28;20062;-74
2023/08/05 02:51:55;;;;;;;5.35;2.33;;;;;;;15.19;100.00;101299.34;6226299;28;20054;-74
2023/08/05 02:54:56;;;;;;;6.53;3.05;;;;;;;15.17;100.00;101299.44;6225917;28;20057;-74
2023/08/05 02:57:59;;;;;;;5.38;3.55;;;;;;;15.16;100.00;101305.66;6226640;28;20466;-73
2023/08/05 03:01:08;;;;;;;3.78;2.72;;;;;;;15.13;100.00;101308.53;6226228;28;20054;-74
2023/08/05 03:04:09;;;;;;;7.80;2.58;;;;;;;15.14;100.00;101306.72;6226092;28;20053;-74
2023/08/05 03:07:11;;;;;;;6.68;3.40;;;;;;;15.13;100.00;101310.31;6226021;28;20046;-74
2023/08/05 03:10:12;;;;;;;6.78;3.20;;;;;;;15.13;100.00;101305.88;6226466;28;20045;-74
2023/08/05 03:13:15;;;;;;;5.35;2.75;;;;;;;15.13;100.00;101307.69;6226114;28;20058;-74
2023/08/05 03:16:16;;;;;;;5.88;2.58;;;;;;;15.14;100.00;101307.56;6225981;28;20050;-74
2023/08/05 03:19:18;;;;;;;5.68;2.78;;;;;;;15.14;100.00;101296.13;6226164;28;20050;-74
2023/08/05 03:22:19;;;;;;;5.88;2.75;;;;;;;15.18;100.00;101303.78;6211371;28;20058;-74
2023/08/05 03:25:21;;;;;;;4.30;2.53;;;;;;;15.18;100.00;101297.63;6201651;28;20046;-74
2023/08/05 03:28:24;;;;;;;3.95;2.83;;;;;;;15.07;100.00;101295.66;6201800;28;20501;-74
2023/08/05 03:31:26;;;;;;;4.50;2.60;;;;;;;15.14;100.00;101296.13;6206393;28;20050;-74
2023/08/05 03:34:27;;;;;;;4.85;2.55;;;;;;;15.17;100.00;101293.25;6206036;28;20046;-74
2023/08/05 03:37:29;;;;;;;5.35;3.33;;;;;;;15.11;100.00;101291.88;6206596;28;20057;-74
2023/08/05 03:40:30;;;;;;;7.88;3.10;;;;;;;15.07;100.00;101292.16;6206163;28;20158;-74
2023/08/05 03:43:33;;;;;;;7.70;3.33;;;;;;;15.12;100.00;101288.28;6208435;28;20054;-74
2023/08/05 03:46:35;;;;;;;5.53;2.83;;;;;;;15.19;100.00;101294.88;6209918;28;20042;-74
2023/08/05 03:49:36;;;;;;;9.82;3.35;;;;;;;15.23;100.00;101282.31;6214023;28;20150;-74
2023/08/05 03:52:38;;;;;;;7.68;3.47;;;;;;;15.22;100.00;101280.63;6206169;28;20054;-74
2023/08/05 03:55:40;;;;;;;7.38;2.65;;;;;;;15.18;100.00;101279.94;6205762;28;20351;-74
2023/08/05 03:58:43;;;;;;;4.13;2.47;;;;;;;15.17;100.00;101272.09;6225320;28;20374;-74
2023/08/05 04:01:45;;;;;;;4.22;2.85;;;;;;;15.14;100.00;101269.66;6229993;28;20108;-74
2023/08/05 04:04:47;;;;;;;4.95;3.03;;;;;;;15.06;100.00;101274.59;6226699;28;20042;-74
2023/08/05 04:07:48;;;;;;;5.88;2.90;;;;;;;15.02;100.00;101273.06;6216236;28;20050;-74
2023/08/05 04:10:50;;;;;;;5.88;3.28;;;;;;;15.00;100.00;101264.41;6213517;28;20050;-74
2023/08/05 04:13:55;;;;;;;5.43;2.78;;;;;;;15.09;100.00;101274.41;6229597;28;20446;-74
2023/08/05 04:16:57;;;;;;;6.15;2.70;;;;;;;15.08;100.00;101260.31;6228949;28;20050;-74
2023/08/05 04:20:00;;;;;;;5.25;3.03;;;;;;;15.03;100.00;101262.38;6207181;28;20057;-74
2023/08/05 04:23:04;;;;;;;5.95;2.45;;;;;;;15.05;100.00;101254.38;6215351;28;20053;-74
2023/08/05 04:26:05;;;;;;;8.15;3.75;;;;;;;14.90;100.00;101246.47;6223473;28;20465;-74
2023/08/05 04:29:09;;;;;;;6.75;2.83;;;;;;;14.94;100.00;101242.66;6229468;28;20056;-74
2023/08/05 04:32:11;;;;;;;5.88;3.70;;;;;;;14.87;100.00;101248.44;6229696;28;20050;-74
2023/08/05 04:35:13;;;;;;;7.50;3.78;;;;;;;14.76;100.00;101240.31;6229235;28;20042;-74
2023/08/05 04:38:14;;;;;;;5.18;3.35;;;;;;;14.81;100.00;101246.19;6229364;28;20076;-74
2023/08/05 04:41:15;;;;;;;6.68;3.42;;;;;;;14.82;100.00;101239.94;6228716;28;20046;-74
2023/08/05 04:44:18;;;;;;;4.03;3.00;;;;;;;14.88;100.00;101247.47;6229032;28;20056;-74
2023/08/05 04:47:20;;;;;;;6.18;3.28;;;;;;;14.89;100.00;101247.38;6229076;28;20446;-73
2023/08/05 04:50:22;;;;;;;5.22;3.33;;;;;;;14.89;100.00;101247.38;6229220;28;20056;-73
2023/08/05 04:53:23;;;;;;;6.25;3.80;;;;;;;14.88;100.00;101240.41;6222617;28;20053;-74
2023/08/05 04:56:25;;;;;;;9.05;3.30;;;;;;;14.84;100.00;101241.53;6217365;28;20069;-74
2023/08/05 04:59:28;;;;;;;5.80;3.63;;;;;;;14.84;100.00;101245.97;6228788;28;20362;-74
2023/08/05 05:02:29;;;;;;;5.45;3.08;;;;;;;14.82;100.00;101247.88;6228504;28;20050;-74
2023/08/05 05:05:33;;;;;;;4.75;3.45;;;;;;;14.83;100.00;101245.13;6229559;28;20052;-73
2023/08/05 05:08:34;;;;;;;8.27;3.83;;;;;;;14.79;100.00;101251.56;6242387;28;20174;-74
2023/08/05 05:11:36;;;;;;;7.53;3.35;;;;;;;14.76;100.00;101246.47;6245297;28;20042;-74
2023/08/05 05:14:45;;;;;;;4.10;2.78;;;;;;;14.80;100.00;101253.25;6244439;28;20439;-74
2023/08/05 05:17:46;;;;;;;;;;;;;;;14.77;100.00;101258.75;6253481;28;20045;-74
2023/08/05 05:20:50;;;;;;;6.03;3.20;;;;;;;14.82;100.00;101254.03;6252812;28;19928;-74
2023/08/05 05:23:52;;;;;;;6.93;3.55;;;;;;;14.88;100.00;101252.78;6252684;28;20388;-74
2023/08/05 05:26:53;;;;;;;10.02;4.35;;;;;;;14.90;100.00;101261.50;6247221;28;20045;-73
2023/08/05 05:29:56;;;;;;;7.78;3.65;;;;;;;14.89;100.00;101257.13;6252568;28;20386;-73
2023/08/05 05:32:57;;;;;;;6.30;2.88;;;;;;;14.95;100.00;101256.75;6234756;28;20449;-73
2023/08/05 05:35:59;;;;;;;9.63;4.07;;;;;;;14.91;100.00;101258.75;6211115;28;20043;-74
2023/08/05 05:39:00;;;;;;;4.90;3.53;;;;;;;14.89;100.00;101271.19;6203496;28;20355;-74
2023/08/05 05:42:02;;;;;;;6.78;3.45;;;;;;;14.91;100.00;101279.06;6203391;28;20054;-74
2023/08/05 05:45:06;;;;;;;4.70;2.88;;;;;;;14.92;100.00;101278.09;6203251;28;20047;-74
2023/08/05 05:48:07;;;;;;;4.93;3.00;;;;;;;14.97;100.00;101286.59;6203260;28;20138;-73
2023/08/05 05:51:08;;;;;;;5.10;2.83;;;;;;;15.01;100.00;101285.47;6225156;28;20061;-73
2023/08/05 05:54:10;;;;;;;6.30;2.97;;;;;;;15.07;100.00;101276.28;6241394;28;20438;-74
2023/08/05 05:57:11;;;;;;;9.50;3.78;;;;;;;15.14;100.00;101277.59;6222855;28;20042;-73
2023/08/05 06:00:15;;;;;;;6.10;3.60;;;;;;;15.17;100.00;101274.72;6213582;28;20354;-74
2023/08/05 06:03:16;;;;;;;3.70;2.58;;;;;;;15.19;100.00;101276.34;6213161;28;20057;-73
2023/08/05 06:06:18;;;;;;;10.40;3.20;;;;;;;15.13;100.00;101271.47;6202837;28;20046;-73
2023/08/05 06:09:20;;;;;;;4.35;2.47;;;;;;;15.12;100.00;101267.09;6202698;28;20355;-74
2023/08/05 06:12:24;;;;;;;6.85;3.45;;;;;;;15.14;100.00;101274.94;6202624;28;20355;-74
2023/08/05 06:15:27;;;;;;;4.50;2.80;;;;;;;15.20;100.00;101274.53;6220264;22;20089;-74
2023/08/05 06:18:28;;;;;;;6.53;3.13;;;;;;;15.21;100.00;101278.88;6276018;28;20179;-74
2023/08/05 06:21:29;;;;;;;5.18;2.63;;;;;;;15.27;100.00;101289.09;6258867;28;20132;-75
2023/08/05 06:24:31;;;;;;;3.83;2.65;;;;;;;15.32;100.00;101276.41;6258113;28;20049;-75
2023/08/05 06:27:33;;;;;;;6.55;2.83;;;;;;;15.31;100.00;101280.03;6275945;28;20045;-74
2023/08/05 06:30:36;;;;;;;3.83;2.40;;;;;;;15.30;100.00;101270.34;6276200;28;20055;-74
2023/08/05 06:33:37;;;;;;;5.43;2.38;;;;;;;15.32;100.00;101275.56;6275718;28;20094;-75
2023/08/05 06:36:38;;;;;;;5.00;2.65;;;;;;;15.37;100.00;101270.81;6285267;28;20041;-74
2023/08/05 06:39:40;;;;;;;3.50;1.95;;;;;;;15.40;100.00;101266.19;6290591;28;20040;-75
2023/08/05 06:42:41;;;;;;;5.20;3.08;;;;;;;15.35;100.00;101270.94;6297975;28;20056;-74
2023/08/05 06:45:44;;;;;;;5.28;2.25;;;;;;;15.45;100.00;101268.53;6288507;28;20040;-74
2023/08/05 06:48:46;;;;;;;4.38;2.28;;;;;;;15.48;100.00;101268.31;6276531;28;20342;-75
2023/08/05 06:51:47;;;;;;;6.97;2.40;;;;;;;15.53;100.00;101270.66;6277524;28;20396;-75
2023/08/05 06:54:48;;;;;;;3.28;2.00;;;;;;;15.61;100.00;101265.69;6271521;28;20114;-75
2023/08/05 06:57:50;;;;;;;6.40;1.80;;;;;;;15.62;100.00;101264.75;6271525;28;20057;-75
2023/08/05 07:00:53;;;;;;;6.53;1.90;;;;;;;15.63;100.00;101258.53;6289132;28;20455;-74
2023/08/05 07:03:55;;;;;;;4.60;1.90;;;;;;;15.59;100.00;101262.31;6291550;28;20057;-74
2023/08/05 07:06:56;;;;;;;6.22;1.80;;;;;;;15.61;100.00;101261.25;6286640;28;20044;-75
2023/08/05 07:10:01;;;;;;;4.38;1.90;;;;;;;15.66;100.00;101261.81;6276419;28;20107;-75
2023/08/05 07:13:05;;;;;;;3.20;1.50;;;;;;;15.72;100.00;101260.59;6289378;28;20177;-74
2023/08/05 07:16:08;;;;;;;3.60;1.67;;;;;;;15.78;100.00;101265.47;6283071;28;20045;-74
2023/08/05 07:19:10;;;;;;;7.28;2.03;;;;;;;15.75;100.00;101246.28;6282021;28;20072;-74
2023/08/05 07:22:11;;;;;;;2.42;1.55;;;;;;;15.92;100.00;101252.13;6288705;28;20049;-75
2023/08/05 07:25:12;;;;;;;4.57;1.90;;;;;;;15.86;100.00;101252.56;6283335;28;20076;-74
2023/08/05 07:28:14;;;;;;;2.85;1.40;;;;;;;15.84;100.00;101251.78;6291215;28;20049;-76
2023/08/05 07:31:17;;;;;;;4.45;1.33;;;;;;;15.90;100.00;101248.75;6290083;28;20048;-74
2023/08/05 07:34:18;;;;;;;3.90;1.50;;;;;;;15.92;100.00;101233.59;6293361;28;20352;-74
2023/08/05 07:37:20;;;;;;;4.05;1.63;;;;;;;15.94;100.00;101230.81;6299710;28;20356;-73
2023/08/05 07:40:21;;;;;;;9.25;1.70;;;;;;;15.93;100.00;101237.91;6300075;28;20056;-73
2023/08/05 07:43:23;;;;;;;4.82;1.65;;;;;;;15.97;100.00;101222.66;6298269;28;20048;-75
2023/08/05 07:46:26;;;;;;;9.23;1.85;;;;;;;16.00;100.00;101216.31;6269806;28;20132;-74
2023/08/05 07:49:28;;;;;;;7.72;1.60;;;;;;;15.93;100.00;101213.22;6270294;28;20453;-75
2023/08/05 07:52:29;;;;;;;3.72;1.80;;;;;;;16.01;100.00;101202.94;6274239;28;20049;-75
2023/08/05 07:55:32;;;;;;;9.18;1.50;;;;;;;16.05;100.00;101203.59;6283524;28;20040;-75
2023/08/05 07:58:33;;;;;;;3.20;1.60;;;;;;;16.04;100.00;101202.75;6293007;28;20049;-75
2023/08/05 08:01:38;;;;;;;4.07;1.85;;;;;;;16.02;100.00;101196.69;6281955;28;20048;-75
2023/08/05 08:04:40;;;;;;;2.53;1.50;;;;;;;16.03;100.00;101206.31;6290875;28;20049;-76
2023/08/05 08:07:46;;;;;;;4.55;1.80;;;;;;;16.19;100.00;101206.97;6297721;28;20442;-76
2023/08/05 08:10:47;;;;;;;3.53;1.60;;;;;;;16.23;100.00;101200.50;6279687;28;20492;-76
2023/08/05 08:13:49;;;;;;;3.47;1.88;;;;;;;16.28;100.00;101204.63;6281296;28;20052;-76
2023/08/05 08:16:52;;;;;;;4.40;1.42;;;;;;;16.35;100.00;101198.81;6269720;28;20052;-75
2023/08/05 08:19:53;;;;;;;4.25;1.27;;;;;;;16.45;100.00;101197.19;6272739;28;20071;-74
2023/08/05 08:22:54;;;;;;;5.18;1.85;;;;;;;16.49;100.00;101195.19;6274740;28;20049;-76
2023/08/05 08:25:58;;;;;;;7.03;1.58;;;;;;;16.55;100.00;101186.78;6272384;28;20068;-75
2023/08/05 08:28:59;;;;;;;4.78;1.50;;;;;;;16.51;100.00;101195.06;6285510;28;20049;-75
2023/08/05 08:32:02;;;;;;;2.63;1.77;;;;;;;16.57;100.00;101191.97;6278626;28;20052;-75
2023/08/05 08:35:04;;;;;;;4.28;1.33;;;;;;;16.69;100.00;101197.25;6277503;28;20072;-75
2023/08/05 08:38:05;;;;;;;3.10;1.20;;;;;;;16.67;100.00;101193.03;6278783;28;20060;-75
2023/08/05 08:41:07;;;;;;;5.28;1.70;;;;;;;16.71;100.00;101189.16;6278464;28;20049;-75
2023/08/05 08:44:09;;;;;;;3.13;1.52;;;;;;;16.70;100.00;101187.47;6278389;28;20048;-75
2023/08/05 08:47:12;;;;;;;4.68;1.60;;;;;;;16.73;100.00;101182.84;6278730;28;20049;-75
2023/08/05 08:50:14;;;;;;;4.32;1.27;;;;;;;16.88;100.00;101170.25;6294819;28;20056;-75
2023/08/05 08:53:16;;;;;;;4.28;1.70;;;;;;;16.96;100.00;101165.22;6302929;28;20343;-75
2023/08/05 08:56:17;;;;;;;2.78;1.40;;;;;;;16.91;100.00;101174.50;6295245;28;20060;-75
2023/08/05 08:59:19;;;;;;;5.72;1.42;;;;;;;16.86;100.00;101185.44;6286796;28;20049;-75
2023/08/05 09:02:24;;;;;;;6.88;1.90;;;;;;;16.86;100.00;101176.66;6278076;28;20357;-75
2023/08/05 09:05:26;;;;;;;5.43;1.33;;;;;;;16.84;100.00;101173.22;6278384;28;20048;-75
2023/08/05 09:08:29;;;;;;;2.55;1.40;;;;;;;16.85;100.00;101170.50;6277832;28;20053;-75
2023/08/05 09:11:30;;;;;;;3.28;1.60;;;;;;;16.83;100.00;101161.78;6278126;28;20067;-75
2023/08/05 09:14:31;;;;;;;8.27;1.60;;;;;;;16.84;100.00;101152.00;6277499;28;20053;-75
2023/08/05 09:17:39;;;;;;;1.20;1.10;;;;;;;16.85;100.00;101138.63;6274864;28;20045;-75
2023/08/05 09:20:40;;;;;;;2.00;1.17;;;;;;;16.97;100.00;101142.16;6282658;28;20076;-75
2023/08/05 09:23:45;;;;;;;1.85;1.23;;;;;;;17.00;100.00;101134.00;6288241;28;20059;-75
2023/08/05 09:26:47;;;;;;;2.58;1.25;;;;;;;17.13;100.00;101133.94;6275921;28;20044;-75
2023/08/05 09:29:48;;;;;;;1.40;1.08;;;;;;;17.12;100.00;101130.44;6277286;28;20365;-75
2023/08/05 09:32:53;;;;;;;3.75;1.20;;;;;;;17.16;100.00;101129.22;6277201;28;20056;-75
2023/08/05 09:35:54;;;;;;;4.30;1.52;;;;;;;17.25;100.00;101127.69;6276905;28;20052;-75
2023/08/05 09:39:03;;;;;;;1.50;1.13;;;;;;;17.35;100.00;101126.03;6277336;28;20053;-75
2023/08/05 09:42:05;;;;;;;2.17;1.10;;;;;;;17.37;100.00;101125.91;6277104;28;20136;-75
2023/08/05 09:45:09;;;;;;;4.30;0.85;;;;;;;17.32;100.00;101120.13;6277084;28;20135;-75
2023/08/05 09:48:14;;;;;;;1.42;0.80;;;;;;;17.29;100.00;101109.72;6276872;28;20060;-75
2023/08/05 09:51:16;;;;;;;2.42;1.10;;;;;;;17.29;100.00;101099.91;6277051;28;20062;-75
2023/08/05 09:54:23;;;;;;;1.33;1.15;;;;;;;17.29;100.00;101096.44;6276553;28;20060;-75
2023/08/05 09:57:25;;;;;;;2.15;1.33;;;;;;;17.36;100.00;101085.22;6276803;28;20076;-75
2023/08/05 10:00:28;;;;;;;5.88;1.40;;;;;;;17.52;100.00;101086.69;6276819;28;20055;-76
2023/08/05 10:03:33;;;;;;;1.30;1.13;;;;;;;17.58;100.00;101083.59;6276609;28;20060;-75
2023/08/05 10:06:38;;;;;;;1.35;1.08;;;;;;;17.65;100.00;101082.13;6276416;28;20417;-76
2023/08/05 10:09:40;;;;;;;2.25;1.20;;;;;;;17.69;100.00;101076.44;6276941;28;20049;-76
2023/08/05 10:12:45;;;;;;;2.00;1.38;;;;;;;17.85;100.00;101076.16;6275691;28;20424;-79
2023/08/05 10:15:50;;;;;;;4.60;1.48;;;;;;;17.90;100.00;101073.13;6249934;28;20055;-76
2023/08/05 10:18:53;;;;;;;4.65;1.30;;;;;;;17.98;100.00;101068.03;6247907;28;20046;-71
2023/08/05 10:22:07;;;;;;;3.15;1.75;;;;;;;18.11;100.00;101063.41;6248862;28;20057;-76
2023/08/05 10:25:08;;;;;;;2.35;1.40;;;;;;;18.26;100.00;101061.38;6241566;28;20053;-76
2023/08/05 10:28:11;;;;;;;3.33;1.60;;;;;;;18.30;100.00;101053.97;6243514;28;20046;-76
2023/08/05 10:31:28;;;;;;;1.48;1.20;;;;;;;18.35;100.00;101051.75;6247443;28;20049;-75
2023/08/05 10:34:30;;;;;;;2.83;1.33;;;;;;;18.30;100.00;101048.63;6242800;28;20045;-76
2023/08/05 10:37:50;;;;;;;1.40;1.17;;;;;;;18.34;100.00;101039.44;6242143;28;20064;-71
2023/08/05 10:40:55;;;;;;;5.20;1.20;;;;;;;18.42;100.00;101037.00;6247243;28;20045;-76
2023/08/05 10:43:57;;;;;;;3.22;1.20;;;;;;;18.48;100.00;101031.16;6235206;28;20188;-75
2023/08/05 10:47:03;;;;;;;1.80;1.50;;;;;;;18.78;100.00;101034.97;6224743;28;20054;-75
2023/08/05 10:50:14;;;;;;;1.70;1.20;;;;;;;18.69;100.00;101021.44;6226025;28;20057;-76
2023/08/05 10:53:15;;;;;;;1.70;1.35;;;;;;;18.69;100.00;101010.78;6224817;28;20084;-76
2023/08/05 10:56:17;;;;;;;3.08;1.13;;;;;;;18.86;100.00;101000.56;6225986;28;20056;-76
2023/08/05 10:59:18;;;;;;;1.40;0.82;;;;;;;19.07;100.00;101000.56;6226310;28;20362;-75
2023/08/05 11:02:22;;;;;;;2.75;1.00;;;;;;;19.11;100.00;101002.81;6226280;28;20053;-76
2023/08/05 11:05:25;;;;;;;3.13;1.30;;;;;;;19.20;100.00;100996.72;6225965;28;20057;-75
2023/08/05 11:08:27;;;;;;;1.10;0.90;;;;;;;19.20;100.00;101001.19;6226020;28;20331;-74
2023/08/05 11:11:30;;;;;;;3.88;1.23;;;;;;;19.24;100.00;100997.28;6226037;28;20053;-75
2023/08/05 11:14:32;;;;;;;1.92;1.30;;;;;;;19.21;100.00;100998.41;6226065;28;20086;-75
2023/08/05 11:17:34;;;;;;;1.55;1.20;;;;;;;19.12;100.00;100987.69;6225880;28;20057;-75
2023/08/05 11:20:37;;;;;;;2.88;1.52;;;;;;;19.02;100.00;100988.47;6226240;28;20061;-75
2023/08/05 11:23:40;;;;;;;2.45;1.48;;;;;;;18.98;100.00;100987.03;6225632;28;20485;-75
2023/08/05 11:26:41;;;;;;;1.63;1.45;;;;;;;19.04;100.00;100976.84;6226018;28;20085;-75
2023/08/05 11:29:43;;;;;;;2.03;1.52;;;;;;;19.12;100.00;100969.03;6226012;28;20076;-75
2023/08/05 11:32:52;;;;;;;4.35;1.25;;;;;;;19.37;100.00;100976.59;6225990;28;20054;-75
2023/08/05 11:35:55;;;;;;;2.70;1.38;;;;;;;19.50;100.00;100968.41;6225694;28;20054;-75
2023/08/05 11:38:59;;;;;;;2.00;1.00;;;;;;;19.59;100.00;100977.41;6225761;28;20378;-75
2023/08/05 11:42:02;;;;;;;2.75;1.63;;;;;;;19.64;100.00;100962.72;6225866;28;20143;-75
2023/08/05 11:45:04;;;;;;;1.90;1.20;;;;;;;19.71;100.00;100963.88;6225420;28;20061;-75
2023/08/05 11:48:06;;;;;;;2.00;1.27;;;;;;;19.69;100.00;100970.31;6226159;28;20050;-75
2023/08/05 11:51:08;;;;;;;1.85;1.33;;;;;;;19.71;100.00;100958.56;6228308;28;20435;-75
2023/08/05 11:54:10;;;;;;;2.15;1.35;;;;;;;19.64;100.00;100952.06;6230500;28;20057;-75
2023/08/05 11:57:19;;;;;;;1.60;1.33;;;;;;;19.60;100.00;100961.31;6234003;28;20037;-75
2023/08/05 12:00:20;;;;;;;2.38;1.33;;;;;;;19.57;100.00;100955.34;6247421;28;20392;-75
2023/08/05 12:03:22;;;;;;;3.58;1.60;;;;;;;19.59;100.00;100942.75;6253761;28;20049;-76
2023/08/05 12:06:27;;;;;;;3.33;1.45;;;;;;;19.66;100.00;100949.25;6253798;28;20056;-76
2023/08/05 12:09:28;;;;;;;2.58;1.50;;;;;;;19.62;100.00;100943.38;6246500;28;20082;-76
2023/08/05 12:12:30;;;;;;;1.63;1.20;;;;;;;19.71;100.00;100947.00;6250654;28;20054;-76
2023/08/05 12:15:32;;;;;;;3.88;1.20;;;;;;;19.74;100.00;100941.41;6248877;28;20050;-76
2023/08/05 12:18:34;;;;;;;2.35;1.42;;;;;;;19.69;100.00;100932.97;6250533;28;20358;-76
2023/08/05 12:21:36;;;;;;;3.28;1.90;;;;;;;19.83;100.00;100934.44;6252636;28;20076;-75
2023/08/05 12:24:38;;;;;;;2.53;1.48;;;;;;;19.90;100.00;100927.56;6245557;28;20045;-75
2023/08/05 12:27:39;;;;;;;2.13;1.30;;;;;;;19.93;100.00;100927.28;6245714;28;20048;-75
2023/08/05 12:30:41;;;;;;;1.45;1.30;;;;;;;19.97;100.00;100916.19;6245791;28;20050;-75
2023/08/05 12:33:42;;;;;;;2.47;1.60;;;;;;;19.91;100.00;100910.56;6253880;28;20056;-75
2023/08/05 12:36:45;;;;;;;2.72;1.48;;;;;;;19.93;100.00;100905.94;6253266;28;20075;-76
2023/08/05 12:39:47;;;;;;;2.88;1.70;;;;;;;20.10;100.00;100899.09;6241551;28;20434;-76
2023/08/05 12:42:48;;;;;;;2.92;1.38;;;;;;;20.52;100.00;100891.63;6242722;28;20053;-76
2023/08/05 12:45:49;;;;;;;2.75;1.73;;;;;;;20.70;100.00;100884.56;6244274;28;20064;-72
2023/08/05 12:48:51;;;;;;;3.05;1.60;;;;;;;20.91;100.00;100881.72;6239407;28;20045;-76
2023/08/05 12:51:54;;;;;;;1.80;1.17;;;;;;;20.95;100.00;100882.28;6244048;28;20369;-76
2023/08/05 12:54:55;;;;;;;2.25;1.60;;;;;;;21.09;100.00;100883.63;6251521;28;20053;-76
2023/08/05 12:57:56;;;;;;;2.17;1.25;;;;;;;21.06;100.00;100873.22;6252167;28;20323;-76
2023/08/05 13:00:58;;;;;;;3.03;1.60;;;;;;;20.90;100.00;100874.72;6252108;28;20056;-75
2023/08/05 13:03:59;;;;;;;1.80;1.38;;;;;;;20.68;100.00;100867.03;6251944;28;20057;-76
2023/08/05 13:07:02;;;;;;;2.03;1.33;;;;;;;20.48;100.00;100872.41;6253387;28;20081;-76
2023/08/05 13:10:04;;;;;;;3.17;1.63;;;;;;;20.38;100.00;100863.53;6253310;28;20049;-76
2023/08/05 13:13:05;;;;;;;1.40;1.30;;;;;;;20.52;100.00;100852.44;6253364;28;20056;-75
2023/08/05 13:16:06;;;;;;;2.30;1.20;;;;;;;20.76;100.00;100843.13;6252811;28;20057;-76
2023/08/05 13:19:08;;;;;;;2.47;1.67;;;;;;;21.11;100.00;100849.56;6252981;28;20349;-76
2023/08/05 13:22:11;;;;;;;1.88;1.35;;;;;;;21.35;100.00;100843.72;6252957;28;20050;-75
2023/08/05 13:25:13;;;;;;;2.30;1.40;;;;;;;21.34;100.00;100839.38;6252564;28;20046;-76
2023/08/05 13:28:14;;;;;;;1.52;1.30;;;;;;;21.14;100.00;100835.94;6252884;28;20061;-76
2023/08/05 13:31:15;;;;;;;1.77;1.40;;;;;;;20.96;100.00;100834.03;6252650;28;20461;-76
2023/08/05 13:34:17;;;;;;;1.90;1.23;;;;;;;20.86;100.00;100830.56;6252282;28;20045;-76
2023/08/05 13:37:19;;;;;;;1.58;1.13;;;;;;;21.19;100.00;100833.66;6241826;28;20048;-76
2023/08/05 13:40:21;;;;;;;2.28;1.15;;;;;;;21.40;100.00;100815.56;6236552;28;20057;-76
2023/08/05 13:43:23;;;;;;;2.10;1.23;;;;;;;21.21;100.00;100815.63;6248649;28;20404;-75
2023/08/05 13:46:24;;;;;;;2.20;1.23;;;;;;;21.09;100.00;100811.47;6249328;28;20374;-75
2023/08/05 13:49:25;;;;;;;2.13;1.48;;;;;;;21.16;100.00;100812.56;6243714;28;20041;-75
2023/08/05 13:52:28;;;;;;;2.05;1.45;;;;;;;21.58;100.00;100807.56;6248669;28;20350;-74
2023/08/05 13:55:29;;;;;;;3.72;1.25;;;;;;;21.91;100.00;100792.66;6251706;28;20049;-74
2023/08/05 13:58:31;;;;;;;1.92;1.20;;;;;;;21.94;100.00;100787.00;6249205;28;20052;-75